createdAt,value
2018-06-04T00:00:13.631Z,976.00
2018-06-04T00:01:13.628Z,976.00
2018-06-04T00:02:13.621Z,980.00
2018-06-04T00:03:13.612Z,976.00
2018-06-04T00:04:13.610Z,968.00
2018-06-04T00:05:13.599Z,968.00
2018-06-04T00:06:13.589Z,964.00
2018-06-04T00:07:13.582Z,960.00
2018-06-04T00:08:13.581Z,952.00
2018-06-04T00:09:13.567Z,952.00
2018-06-04T00:10:13.565Z,948.00
2018-06-04T00:11:13.558Z,940.00
2018-06-04T00:12:13.547Z,940.00
2018-06-04T00:13:13.545Z,936.00
2018-06-04T00:14:13.538Z,936.00
2018-06-04T00:15:13.526Z,920.00
2018-06-04T00:16:13.523Z,924.00
2018-06-04T00:17:13.517Z,916.00
2018-06-04T00:18:13.508Z,912.00
2018-06-04T00:19:13.510Z,908.00
2018-06-04T00:20:13.496Z,896.00
2018-06-04T00:21:13.489Z,888.00
2018-06-04T00:22:13.485Z,860.00
2018-06-04T00:23:13.475Z,832.00
2018-06-04T00:24:13.467Z,804.00
2018-06-04T00:25:13.462Z,764.00
2018-06-04T00:26:13.454Z,744.00
2018-06-04T00:27:13.447Z,716.00
2018-06-04T00:28:13.444Z,704.00
2018-06-04T00:29:13.438Z,688.00
2018-06-04T00:30:13.426Z,668.00
2018-06-04T00:31:13.448Z,664.00
2018-06-04T00:32:13.416Z,656.00
2018-06-04T00:33:13.403Z,636.00
2018-06-04T00:34:13.399Z,632.00
2018-06-04T00:35:13.391Z,612.00
2018-06-04T00:36:13.388Z,596.00
2018-06-04T00:37:13.386Z,592.00
2018-06-04T00:38:13.372Z,588.00
2018-06-04T00:39:13.367Z,592.00
2018-06-04T00:40:13.359Z,584.00
2018-06-04T00:41:13.353Z,564.00
2018-06-04T00:42:13.346Z,544.00
2018-06-04T00:43:13.386Z,532.00
2018-06-04T00:44:13.338Z,520.00
2018-06-04T00:45:13.352Z,496.00
2018-06-04T00:46:13.318Z,476.00
2018-06-04T00:47:13.311Z,456.00
2018-06-04T00:48:13.303Z,432.00
2018-06-04T00:49:13.317Z,424.00
2018-06-04T00:50:13.293Z,416.00
2018-06-04T00:51:13.282Z,412.00
2018-06-04T00:52:13.277Z,404.00
2018-06-04T00:53:13.272Z,408.00
2018-06-04T00:54:13.264Z,416.00
2018-06-04T00:55:13.257Z,428.00
2018-06-04T00:56:13.252Z,424.00
2018-06-04T00:57:13.247Z,416.00
2018-06-04T00:58:13.235Z,400.00
2018-06-04T00:59:13.228Z,396.00
2018-06-04T01:00:13.222Z,396.00
2018-06-04T01:01:13.215Z,388.00
2018-06-04T01:02:13.205Z,384.00
2018-06-04T01:03:13.203Z,380.00
2018-06-04T01:04:13.194Z,380.00
2018-06-04T01:05:13.194Z,376.00
2018-06-04T01:06:13.964Z,368.00
2018-06-04T01:07:13.171Z,344.00
2018-06-04T01:08:13.167Z,328.00
2018-06-04T01:09:13.161Z,308.00
2018-06-04T01:10:13.153Z,308.00
2018-06-04T01:11:13.144Z,308.00
2018-06-04T01:12:13.146Z,308.00
2018-06-04T01:13:13.140Z,304.00
2018-06-04T01:14:13.125Z,308.00
2018-06-04T01:15:13.115Z,312.00
2018-06-04T01:16:13.117Z,316.00
2018-06-04T01:17:13.107Z,316.00
2018-06-04T01:18:13.971Z,320.00
2018-06-04T01:19:13.097Z,320.00
2018-06-04T01:20:13.098Z,328.00
2018-06-04T01:21:13.098Z,352.00
2018-06-04T01:22:13.073Z,352.00
2018-06-04T01:23:13.061Z,356.00
2018-06-04T01:24:13.060Z,380.00
2018-06-04T01:25:13.052Z,384.00
2018-06-04T01:26:13.045Z,400.00
2018-06-04T01:27:13.039Z,440.00
2018-06-04T01:28:13.031Z,452.00
2018-06-04T01:29:13.025Z,468.00
2018-06-04T01:30:13.016Z,488.00
2018-06-04T01:31:13.009Z,492.00
2018-06-04T01:32:13.003Z,496.00
2018-06-04T01:33:12.995Z,508.00
2018-06-04T01:35:45.868Z,492.00
2018-06-04T01:36:45.042Z,508.00
2018-06-04T01:38:38.395Z,512.00
2018-06-04T01:39:38.387Z,508.00
2018-06-04T01:41:32.519Z,528.00
2018-06-04T01:42:31.736Z,512.00
2018-06-04T01:44:25.093Z,520.00
2018-06-04T01:45:25.108Z,520.00
2018-06-04T01:47:18.666Z,528.00
2018-06-04T01:48:18.434Z,520.00
2018-06-04T01:50:11.787Z,520.00
2018-06-04T01:51:11.777Z,512.00
2018-06-04T01:53:05.383Z,512.00
2018-06-04T01:54:05.123Z,508.00
2018-06-04T01:55:58.479Z,504.00
2018-06-04T01:56:58.471Z,500.00
2018-06-04T01:58:52.155Z,492.00
2018-06-04T01:59:51.820Z,488.00
2018-06-04T02:01:45.173Z,472.00
2018-06-04T02:02:45.185Z,468.00
2018-06-04T02:04:38.740Z,460.00
2018-06-04T02:05:38.514Z,448.00
2018-06-04T02:07:31.865Z,452.00
2018-06-04T02:08:31.865Z,444.00
2018-06-04T02:10:25.486Z,440.00
2018-06-04T02:11:25.206Z,440.00
2018-06-04T02:13:18.653Z,440.00
2018-06-04T02:14:18.554Z,436.00
2018-06-04T02:16:12.105Z,432.00
2018-06-04T02:17:11.896Z,432.00
2018-06-04T02:20:37.315Z,416.00
2018-06-04T02:21:37.336Z,420.00
2018-06-04T02:23:30.933Z,416.00
2018-06-04T02:24:30.658Z,412.00
2018-06-04T02:26:23.530Z,404.00
2018-06-04T02:27:23.522Z,404.00
2018-06-04T02:29:17.689Z,396.00
2018-06-04T02:30:16.868Z,392.00
2018-06-04T02:32:10.227Z,388.00
2018-06-04T02:33:10.217Z,384.00
2018-06-04T02:35:03.783Z,380.00
2018-06-04T02:36:03.567Z,372.00
2018-06-04T02:37:56.921Z,456.00
2018-06-04T02:38:56.911Z,464.00
2018-06-04T02:40:50.496Z,552.00
2018-06-04T02:41:50.259Z,548.00
2018-06-04T02:43:43.611Z,540.00
2018-06-04T02:44:43.601Z,536.00
2018-06-04T02:46:36.712Z,436.00
2018-06-04T02:47:36.479Z,440.00
2018-06-04T02:49:29.832Z,524.00
2018-06-04T02:50:29.825Z,516.00
2018-06-04T04:07:43.737Z,280.00
2018-06-04T04:08:43.528Z,280.00
2018-06-04T04:10:35.862Z,272.00
2018-06-04T04:11:35.847Z,272.00
2018-06-04T04:13:28.419Z,280.00
2018-06-04T04:14:28.178Z,280.00
2018-06-04T04:16:20.513Z,284.00
2018-06-04T04:17:20.503Z,284.00
2018-06-04T04:19:13.053Z,296.00
2018-06-04T04:20:12.827Z,300.00
2018-06-04T04:22:05.177Z,300.00
2018-06-04T04:23:05.166Z,308.00
2018-06-04T04:24:57.681Z,312.00
2018-06-04T04:25:57.489Z,316.00
2018-06-04T04:27:49.889Z,316.00
2018-06-04T04:28:49.821Z,316.00
2018-06-04T04:30:42.387Z,316.00
2018-06-04T04:31:42.139Z,316.00
2018-06-04T04:33:34.485Z,312.00
2018-06-04T04:34:34.474Z,312.00
2018-06-04T04:36:27.046Z,304.00
2018-06-04T04:37:26.804Z,304.00
2018-06-04T04:39:19.148Z,296.00
2018-06-04T04:40:19.149Z,296.00
2018-06-04T04:42:13.583Z,292.00
2018-06-04T04:43:13.068Z,292.00
2018-06-04T04:45:05.844Z,288.00
2018-06-04T04:46:05.828Z,284.00
2018-06-04T04:47:58.410Z,280.00
2018-06-04T04:48:58.156Z,284.00
2018-06-04T04:50:50.489Z,280.00
2018-06-04T04:51:50.484Z,276.00
2018-06-04T04:53:44.053Z,272.00
2018-06-04T04:54:43.822Z,272.00
2018-06-04T04:56:35.683Z,272.00
2018-06-04T04:57:35.699Z,264.00
2018-06-04T04:59:29.209Z,264.00
2018-06-04T05:02:01.094Z,260.00
2018-06-04T05:03:01.104Z,264.00
2018-06-04T05:04:54.673Z,264.00
2018-06-04T05:05:54.447Z,260.00
2018-06-04T05:07:47.782Z,264.00
2018-06-04T05:08:47.771Z,256.00
2018-06-04T05:10:41.354Z,260.00
2018-06-04T05:11:41.133Z,260.00
2018-06-04T05:13:33.985Z,248.00
2018-06-04T05:14:34.000Z,252.00
2018-06-04T05:16:26.536Z,252.00
2018-06-04T05:17:26.312Z,240.00
2018-06-04T05:19:19.637Z,252.00
2018-06-04T05:20:19.625Z,248.00
2018-06-04T05:22:12.218Z,256.00
2018-06-04T05:23:11.957Z,248.00
2018-06-04T05:25:04.296Z,252.00
2018-06-04T05:26:04.286Z,248.00
2018-06-04T05:27:57.240Z,252.00
2018-06-04T05:28:56.982Z,252.00
2018-06-04T05:30:49.465Z,252.00
2018-06-04T05:33:21.739Z,252.00
2018-06-04T05:34:21.514Z,252.00
2018-06-04T05:36:15.462Z,252.00
2018-06-04T05:37:14.860Z,248.00
2018-06-04T05:39:08.394Z,248.00
2018-06-04T05:40:08.205Z,252.00
